sensor_id;sensor_type;location;lat;lon;timestamp;temperature;humidity
820;DHT22;392;48.838;2.322;2023-07-28T00:01:20;20.30;76.40
820;DHT22;392;48.838;2.322;2023-07-28T00:03:47;20.30;75.50
820;DHT22;392;48.838;2.322;2023-07-28T00:06:14;20.30;75.10
820;DHT22;392;48.838;2.322;2023-07-28T00:08:41;20.30;76.40
820;DHT22;392;48.838;2.322;2023-07-28T00:11:10;20.30;75.90
820;DHT22;392;48.838;2.322;2023-07-28T00:13:39;20.40;75.40
820;DHT22;392;48.838;2.322;2023-07-28T00:16:07;20.40;75.20
820;DHT22;392;48.838;2.322;2023-07-28T00:18:35;20.30;76.10
820;DHT22;392;48.838;2.322;2023-07-28T00:21:04;20.40;75.30
820;DHT22;392;48.838;2.322;2023-07-28T00:23:32;20.30;75.10
820;DHT22;392;48.838;2.322;2023-07-28T00:26:00;20.30;77.00
820;DHT22;392;48.838;2.322;2023-07-28T00:28:27;20.30;76.10
820;DHT22;392;48.838;2.322;2023-07-28T00:30:55;20.30;75.60
820;DHT22;392;48.838;2.322;2023-07-28T00:33:23;20.30;77.00
820;DHT22;392;48.838;2.322;2023-07-28T00:35:51;20.30;76.30
820;DHT22;392;48.838;2.322;2023-07-28T00:38:18;20.40;75.40
820;DHT22;392;48.838;2.322;2023-07-28T00:40:46;20.30;75.40
820;DHT22;392;48.838;2.322;2023-07-28T00:43:13;20.30;77.00
820;DHT22;392;48.838;2.322;2023-07-28T00:45:41;20.40;76.50
820;DHT22;392;48.838;2.322;2023-07-28T00:48:11;20.40;76.10
820;DHT22;392;48.838;2.322;2023-07-28T00:50:41;20.40;76.60
820;DHT22;392;48.838;2.322;2023-07-28T00:53:09;20.30;77.10
820;DHT22;392;48.838;2.322;2023-07-28T00:55:37;20.30;76.80
820;DHT22;392;48.838;2.322;2023-07-28T00:58:04;20.40;75.50
820;DHT22;392;48.838;2.322;2023-07-28T01:00:31;20.40;77.20
820;DHT22;392;48.838;2.322;2023-07-28T01:02:59;20.40;77.10
820;DHT22;392;48.838;2.322;2023-07-28T01:05:33;20.40;77.10
820;DHT22;392;48.838;2.322;2023-07-28T01:08:10;20.50;76.20
820;DHT22;392;48.838;2.322;2023-07-28T01:10:41;20.40;75.00
820;DHT22;392;48.838;2.322;2023-07-28T01:13:09;20.40;77.10
820;DHT22;392;48.838;2.322;2023-07-28T01:15:36;20.30;77.80
820;DHT22;392;48.838;2.322;2023-07-28T01:18:04;20.30;77.10
820;DHT22;392;48.838;2.322;2023-07-28T01:20:34;20.40;77.70
820;DHT22;392;48.838;2.322;2023-07-28T01:23:08;20.30;77.00
820;DHT22;392;48.838;2.322;2023-07-28T01:25:49;20.30;78.00
820;DHT22;392;48.838;2.322;2023-07-28T01:28:21;20.30;78.30
820;DHT22;392;48.838;2.322;2023-07-28T01:30:49;20.30;78.20
820;DHT22;392;48.838;2.322;2023-07-28T01:33:16;20.30;78.60
820;DHT22;392;48.838;2.322;2023-07-28T01:35:44;20.40;78.20
820;DHT22;392;48.838;2.322;2023-07-28T01:38:11;20.40;78.40
820;DHT22;392;48.838;2.322;2023-07-28T01:40:39;20.40;78.10
820;DHT22;392;48.838;2.322;2023-07-28T01:43:06;20.40;78.30
820;DHT22;392;48.838;2.322;2023-07-28T01:45:35;20.30;77.40
820;DHT22;392;48.838;2.322;2023-07-28T01:48:02;20.30;78.20
820;DHT22;392;48.838;2.322;2023-07-28T01:50:30;20.30;79.30
820;DHT22;392;48.838;2.322;2023-07-28T01:52:57;20.20;78.80
820;DHT22;392;48.838;2.322;2023-07-28T01:55:24;20.20;80.00
820;DHT22;392;48.838;2.322;2023-07-28T01:57:55;20.20;79.10
820;DHT22;392;48.838;2.322;2023-07-28T02:00:23;20.20;78.60
820;DHT22;392;48.838;2.322;2023-07-28T02:02:53;20.20;80.20
820;DHT22;392;48.838;2.322;2023-07-28T02:05:21;20.30;78.60
820;DHT22;392;48.838;2.322;2023-07-28T02:07:48;20.20;77.30
820;DHT22;392;48.838;2.322;2023-07-28T02:10:15;20.20;79.70
820;DHT22;392;48.838;2.322;2023-07-28T02:12:43;20.30;79.60
820;DHT22;392;48.838;2.322;2023-07-28T02:15:11;20.30;78.30
820;DHT22;392;48.838;2.322;2023-07-28T02:17:39;20.30;79.90
820;DHT22;392;48.838;2.322;2023-07-28T02:20:09;20.30;78.50
820;DHT22;392;48.838;2.322;2023-07-28T02:22:38;20.30;77.60
820;DHT22;392;48.838;2.322;2023-07-28T02:25:07;20.20;78.90
820;DHT22;392;48.838;2.322;2023-07-28T02:27:34;20.30;79.40
820;DHT22;392;48.838;2.322;2023-07-28T02:30:02;20.20;78.20
820;DHT22;392;48.838;2.322;2023-07-28T02:32:30;20.20;79.60
820;DHT22;392;48.838;2.322;2023-07-28T02:34:58;20.20;78.70
820;DHT22;392;48.838;2.322;2023-07-28T02:37:26;20.20;79.00
820;DHT22;392;48.838;2.322;2023-07-28T02:39:54;20.20;80.10
820;DHT22;392;48.838;2.322;2023-07-28T02:42:21;20.20;78.90
820;DHT22;392;48.838;2.322;2023-07-28T02:44:49;20.20;80.60
820;DHT22;392;48.838;2.322;2023-07-28T02:47:16;20.20;79.80
820;DHT22;392;48.838;2.322;2023-07-28T02:49:44;20.20;79.40
820;DHT22;392;48.838;2.322;2023-07-28T02:52:11;20.10;81.20
820;DHT22;392;48.838;2.322;2023-07-28T02:54:40;20.20;80.40
820;DHT22;392;48.838;2.322;2023-07-28T02:57:07;20.20;80.00
820;DHT22;392;48.838;2.322;2023-07-28T02:59:36;20.10;81.20
820;DHT22;392;48.838;2.322;2023-07-28T03:02:04;20.20;80.60
820;DHT22;392;48.838;2.322;2023-07-28T03:04:31;20.20;80.30
820;DHT22;392;48.838;2.322;2023-07-28T03:07:22;20.20;80.50
820;DHT22;392;48.838;2.322;2023-07-28T03:09:57;20.20;79.70
820;DHT22;392;48.838;2.322;2023-07-28T03:12:25;20.20;81.40
820;DHT22;392;48.838;2.322;2023-07-28T03:14:52;20.20;81.40
820;DHT22;392;48.838;2.322;2023-07-28T03:17:20;20.20;80.90
820;DHT22;392;48.838;2.322;2023-07-28T03:19:47;20.20;81.60
820;DHT22;392;48.838;2.322;2023-07-28T03:22:17;20.20;81.40
820;DHT22;392;48.838;2.322;2023-07-28T03:24:45;20.20;81.40
820;DHT22;392;48.838;2.322;2023-07-28T03:27:14;20.20;81.40
820;DHT22;392;48.838;2.322;2023-07-28T03:29:41;20.20;80.70
820;DHT22;392;48.838;2.322;2023-07-28T03:32:09;20.20;81.40
820;DHT22;392;48.838;2.322;2023-07-28T03:34:36;20.30;80.70
820;DHT22;392;48.838;2.322;2023-07-28T03:37:06;20.20;81.40
820;DHT22;392;48.838;2.322;2023-07-28T03:39:36;20.30;82.20
820;DHT22;392;48.838;2.322;2023-07-28T03:42:04;20.30;81.20
820;DHT22;392;48.838;2.322;2023-07-28T03:44:33;20.30;81.50
820;DHT22;392;48.838;2.322;2023-07-28T03:47:00;20.30;81.50
820;DHT22;392;48.838;2.322;2023-07-28T03:49:27;20.30;80.90
820;DHT22;392;48.838;2.322;2023-07-28T03:51:55;20.30;82.10
820;DHT22;392;48.838;2.322;2023-07-28T03:54:22;20.30;82.10
820;DHT22;392;48.838;2.322;2023-07-28T03:56:50;20.30;81.50
820;DHT22;392;48.838;2.322;2023-07-28T03:59:19;20.30;83.00
820;DHT22;392;48.838;2.322;2023-07-28T04:01:48;20.30;83.60
820;DHT22;392;48.838;2.322;2023-07-28T04:04:15;20.30;85.20
820;DHT22;392;48.838;2.322;2023-07-28T04:06:44;20.30;84.80
820;DHT22;392;48.838;2.322;2023-07-28T04:09:14;20.10;85.60
820;DHT22;392;48.838;2.322;2023-07-28T04:11:42;20.10;87.80
820;DHT22;392;48.838;2.322;2023-07-28T04:14:10;20.00;90.00
820;DHT22;392;48.838;2.322;2023-07-28T04:19:06;19.90;90.80
820;DHT22;392;48.838;2.322;2023-07-28T04:21:34;19.90;91.70
820;DHT22;392;48.838;2.322;2023-07-28T04:24:01;19.90;91.60
820;DHT22;392;48.838;2.322;2023-07-28T04:26:28;19.90;91.90
820;DHT22;392;48.838;2.322;2023-07-28T04:29:01;19.90;92.00
820;DHT22;392;48.838;2.322;2023-07-28T04:31:29;19.90;92.10
820;DHT22;392;48.838;2.322;2023-07-28T04:34:07;19.80;91.80
820;DHT22;392;48.838;2.322;2023-07-28T04:36:54;19.80;92.60
820;DHT22;392;48.838;2.322;2023-07-28T04:39:24;19.80;93.70
820;DHT22;392;48.838;2.322;2023-07-28T04:41:52;19.80;93.30
820;DHT22;392;48.838;2.322;2023-07-28T04:44:19;19.70;93.50
820;DHT22;392;48.838;2.322;2023-07-28T04:46:48;19.80;93.70
820;DHT22;392;48.838;2.322;2023-07-28T04:49:16;19.70;93.70
820;DHT22;392;48.838;2.322;2023-07-28T04:52:02;19.70;94.10
820;DHT22;392;48.838;2.322;2023-07-28T04:54:39;19.70;94.60
820;DHT22;392;48.838;2.322;2023-07-28T04:57:06;19.80;94.60
820;DHT22;392;48.838;2.322;2023-07-28T04:59:36;19.70;93.80
820;DHT22;392;48.838;2.322;2023-07-28T05:02:04;19.70;94.10
820;DHT22;392;48.838;2.322;2023-07-28T05:04:34;19.70;94.30
820;DHT22;392;48.838;2.322;2023-07-28T05:07:02;19.70;94.20
820;DHT22;392;48.838;2.322;2023-07-28T05:09:30;19.70;94.50
820;DHT22;392;48.838;2.322;2023-07-28T05:12:00;19.80;94.30
820;DHT22;392;48.838;2.322;2023-07-28T05:14:28;19.70;93.60
820;DHT22;392;48.838;2.322;2023-07-28T05:16:55;19.80;94.20
820;DHT22;392;48.838;2.322;2023-07-28T05:19:51;19.80;94.10
820;DHT22;392;48.838;2.322;2023-07-28T05:22:37;19.90;93.60
820;DHT22;392;48.838;2.322;2023-07-28T05:25:05;19.90;93.50
820;DHT22;392;48.838;2.322;2023-07-28T05:27:37;19.90;93.00
820;DHT22;392;48.838;2.322;2023-07-28T05:30:06;19.90;92.50
820;DHT22;392;48.838;2.322;2023-07-28T05:32:34;19.90;92.90
820;DHT22;392;48.838;2.322;2023-07-28T05:35:17;20.00;92.70
820;DHT22;392;48.838;2.322;2023-07-28T05:37:46;20.00;92.10
820;DHT22;392;48.838;2.322;2023-07-28T05:40:14;20.00;92.00
820;DHT22;392;48.838;2.322;2023-07-28T05:42:41;20.00;91.90
820;DHT22;392;48.838;2.322;2023-07-28T05:45:09;20.00;91.60
820;DHT22;392;48.838;2.322;2023-07-28T05:47:37;20.00;92.00
820;DHT22;392;48.838;2.322;2023-07-28T05:50:05;20.00;92.40
820;DHT22;392;48.838;2.322;2023-07-28T05:52:34;20.00;92.00
820;DHT22;392;48.838;2.322;2023-07-28T05:55:02;20.00;92.00
820;DHT22;392;48.838;2.322;2023-07-28T05:57:29;20.10;92.00
820;DHT22;392;48.838;2.322;2023-07-28T05:59:58;20.10;91.70
820;DHT22;392;48.838;2.322;2023-07-28T06:02:25;20.10;91.20
820;DHT22;392;48.838;2.322;2023-07-28T06:04:55;20.10;91.50
820;DHT22;392;48.838;2.322;2023-07-28T06:07:22;20.20;91.10
820;DHT22;392;48.838;2.322;2023-07-28T06:09:51;20.30;90.60
820;DHT22;392;48.838;2.322;2023-07-28T06:12:18;20.30;91.10
820;DHT22;392;48.838;2.322;2023-07-28T06:14:46;20.40;91.20
820;DHT22;392;48.838;2.322;2023-07-28T06:17:13;20.40;90.50
820;DHT22;392;48.838;2.322;2023-07-28T06:19:41;20.40;90.70
820;DHT22;392;48.838;2.322;2023-07-28T06:22:08;20.40;90.20
820;DHT22;392;48.838;2.322;2023-07-28T06:24:41;20.40;88.90
820;DHT22;392;48.838;2.322;2023-07-28T06:27:10;20.50;90.20
820;DHT22;392;48.838;2.322;2023-07-28T06:29:40;20.50;90.20
820;DHT22;392;48.838;2.322;2023-07-28T06:32:07;20.50;88.70
820;DHT22;392;48.838;2.322;2023-07-28T06:34:35;20.50;89.60
820;DHT22;392;48.838;2.322;2023-07-28T06:37:03;20.50;89.20
820;DHT22;392;48.838;2.322;2023-07-28T06:39:31;20.50;88.90
820;DHT22;392;48.838;2.322;2023-07-28T06:41:59;20.50;90.00
820;DHT22;392;48.838;2.322;2023-07-28T06:44:28;20.60;89.30
820;DHT22;392;48.838;2.322;2023-07-28T06:46:55;20.60;88.70
820;DHT22;392;48.838;2.322;2023-07-28T06:49:22;20.50;89.80
820;DHT22;392;48.838;2.322;2023-07-28T06:51:50;20.60;89.60
820;DHT22;392;48.838;2.322;2023-07-28T06:54:18;20.60;89.30
820;DHT22;392;48.838;2.322;2023-07-28T06:56:45;20.60;90.10
820;DHT22;392;48.838;2.322;2023-07-28T06:59:12;20.60;89.10
820;DHT22;392;48.838;2.322;2023-07-28T07:01:41;20.60;88.40
820;DHT22;392;48.838;2.322;2023-07-28T07:04:08;20.60;88.80
820;DHT22;392;48.838;2.322;2023-07-28T07:06:36;20.60;89.00
820;DHT22;392;48.838;2.322;2023-07-28T07:09:04;20.60;87.90
820;DHT22;392;48.838;2.322;2023-07-28T07:11:32;20.70;90.00
820;DHT22;392;48.838;2.322;2023-07-28T07:13:59;20.70;89.50
820;DHT22;392;48.838;2.322;2023-07-28T07:16:26;20.70;89.00
820;DHT22;392;48.838;2.322;2023-07-28T07:18:55;20.70;90.30
820;DHT22;392;48.838;2.322;2023-07-28T07:21:23;20.60;90.00
820;DHT22;392;48.838;2.322;2023-07-28T07:23:50;20.70;90.70
820;DHT22;392;48.838;2.322;2023-07-28T07:26:26;20.70;90.80
820;DHT22;392;48.838;2.322;2023-07-28T07:28:53;20.70;91.20
820;DHT22;392;48.838;2.322;2023-07-28T07:31:21;20.60;90.80
820;DHT22;392;48.838;2.322;2023-07-28T07:33:49;20.60;91.50
820;DHT22;392;48.838;2.322;2023-07-28T07:36:19;20.60;91.60
820;DHT22;392;48.838;2.322;2023-07-28T07:38:47;20.40;91.10
820;DHT22;392;48.838;2.322;2023-07-28T07:41:15;20.30;92.20
820;DHT22;392;48.838;2.322;2023-07-28T07:43:45;20.20;93.50
820;DHT22;392;48.838;2.322;2023-07-28T07:46:12;20.00;94.40
820;DHT22;392;48.838;2.322;2023-07-28T07:48:40;19.90;95.30
820;DHT22;392;48.838;2.322;2023-07-28T07:51:07;19.80;96.10
820;DHT22;392;48.838;2.322;2023-07-28T07:53:36;19.70;96.70
820;DHT22;392;48.838;2.322;2023-07-28T07:56:04;19.70;97.40
820;DHT22;392;48.838;2.322;2023-07-28T07:58:32;19.70;97.80
820;DHT22;392;48.838;2.322;2023-07-28T08:03:28;19.70;98.40
820;DHT22;392;48.838;2.322;2023-07-28T08:05:55;19.80;99.30
820;DHT22;392;48.838;2.322;2023-07-28T08:08:22;19.80;99.80
820;DHT22;392;48.838;2.322;2023-07-28T08:10:51;19.90;99.90
820;DHT22;392;48.838;2.322;2023-07-28T08:13:18;20.00;99.90
820;DHT22;392;48.838;2.322;2023-07-28T08:15:46;20.10;99.90
820;DHT22;392;48.838;2.322;2023-07-28T08:18:14;20.10;99.90
820;DHT22;392;48.838;2.322;2023-07-28T08:20:41;20.20;99.90
820;DHT22;392;48.838;2.322;2023-07-28T08:23:08;20.20;99.90
820;DHT22;392;48.838;2.322;2023-07-28T08:25:36;20.30;99.50
820;DHT22;392;48.838;2.322;2023-07-28T08:28:05;20.40;99.60
820;DHT22;392;48.838;2.322;2023-07-28T08:30:32;20.40;99.00
820;DHT22;392;48.838;2.322;2023-07-28T08:33:01;20.50;98.60
820;DHT22;392;48.838;2.322;2023-07-28T08:35:29;20.60;98.90
820;DHT22;392;48.838;2.322;2023-07-28T08:37:56;20.60;98.20
820;DHT22;392;48.838;2.322;2023-07-28T08:40:23;20.60;97.30
820;DHT22;392;48.838;2.322;2023-07-28T08:42:53;20.70;97.10
820;DHT22;392;48.838;2.322;2023-07-28T08:45:22;20.70;96.50
820;DHT22;392;48.838;2.322;2023-07-28T08:47:51;20.70;96.00
820;DHT22;392;48.838;2.322;2023-07-28T08:50:19;20.70;96.10
820;DHT22;392;48.838;2.322;2023-07-28T08:52:46;20.80;96.00
820;DHT22;392;48.838;2.322;2023-07-28T08:55:15;20.80;95.70
820;DHT22;392;48.838;2.322;2023-07-28T08:57:42;20.90;95.90
820;DHT22;392;48.838;2.322;2023-07-28T09:00:11;20.90;95.20
820;DHT22;392;48.838;2.322;2023-07-28T09:02:41;21.00;95.10
820;DHT22;392;48.838;2.322;2023-07-28T09:05:18;21.00;94.90
820;DHT22;392;48.838;2.322;2023-07-28T09:07:46;21.20;94.60
820;DHT22;392;48.838;2.322;2023-07-28T09:10:14;21.30;93.90
820;DHT22;392;48.838;2.322;2023-07-28T09:12:45;21.20;93.10
820;DHT22;392;48.838;2.322;2023-07-28T09:15:12;21.20;93.20
820;DHT22;392;48.838;2.322;2023-07-28T09:17:43;21.20;93.20
820;DHT22;392;48.838;2.322;2023-07-28T09:20:13;21.20;93.40
820;DHT22;392;48.838;2.322;2023-07-28T09:22:42;21.20;93.90
820;DHT22;392;48.838;2.322;2023-07-28T09:25:14;21.20;93.60
820;DHT22;392;48.838;2.322;2023-07-28T09:27:49;21.20;93.70
820;DHT22;392;48.838;2.322;2023-07-28T09:32:48;21.40;93.90
820;DHT22;392;48.838;2.322;2023-07-28T09:35:17;21.50;93.40
820;DHT22;392;48.838;2.322;2023-07-28T09:37:46;21.60;93.60
820;DHT22;392;48.838;2.322;2023-07-28T09:40:17;21.70;92.60
820;DHT22;392;48.838;2.322;2023-07-28T09:42:48;21.80;92.10
820;DHT22;392;48.838;2.322;2023-07-28T09:45:17;21.90;91.70
820;DHT22;392;48.838;2.322;2023-07-28T09:47:47;22.00;90.80
820;DHT22;392;48.838;2.322;2023-07-28T09:50:18;22.10;90.50
820;DHT22;392;48.838;2.322;2023-07-28T09:52:53;22.30;90.50
820;DHT22;392;48.838;2.322;2023-07-28T09:55:22;22.40;88.60
820;DHT22;392;48.838;2.322;2023-07-28T09:57:51;22.50;88.50
820;DHT22;392;48.838;2.322;2023-07-28T10:00:21;22.60;88.50
820;DHT22;392;48.838;2.322;2023-07-28T10:02:50;22.50;85.30
820;DHT22;392;48.838;2.322;2023-07-28T10:05:19;22.40;84.80
820;DHT22;392;48.838;2.322;2023-07-28T10:07:48;22.30;86.10
820;DHT22;392;48.838;2.322;2023-07-28T10:10:16;22.10;87.50
820;DHT22;392;48.838;2.322;2023-07-28T10:12:47;22.00;89.20
820;DHT22;392;48.838;2.322;2023-07-28T10:15:16;21.90;90.00
820;DHT22;392;48.838;2.322;2023-07-28T10:17:46;21.70;90.70
820;DHT22;392;48.838;2.322;2023-07-28T10:20:33;21.70;91.80
820;DHT22;392;48.838;2.322;2023-07-28T10:23:11;21.70;92.30
820;DHT22;392;48.838;2.322;2023-07-28T10:25:40;21.80;92.90
820;DHT22;392;48.838;2.322;2023-07-28T10:28:26;21.90;91.80
820;DHT22;392;48.838;2.322;2023-07-28T10:30:55;22.20;92.20
820;DHT22;392;48.838;2.322;2023-07-28T10:33:28;22.40;91.90
820;DHT22;392;48.838;2.322;2023-07-28T10:35:57;22.70;89.30
820;DHT22;392;48.838;2.322;2023-07-28T10:38:32;22.80;85.40
820;DHT22;392;48.838;2.322;2023-07-28T10:41:08;22.60;86.50
820;DHT22;392;48.838;2.322;2023-07-28T10:43:37;22.60;86.00
820;DHT22;392;48.838;2.322;2023-07-28T10:46:06;22.70;88.20
820;DHT22;392;48.838;2.322;2023-07-28T10:48:35;23.00;90.20
820;DHT22;392;48.838;2.322;2023-07-28T10:51:05;23.50;91.20
820;DHT22;392;48.838;2.322;2023-07-28T10:53:32;24.10;82.50
820;DHT22;392;48.838;2.322;2023-07-28T10:56:01;24.60;73.50
820;DHT22;392;48.838;2.322;2023-07-28T10:58:29;25.10;70.30
820;DHT22;392;48.838;2.322;2023-07-28T11:00:57;25.10;62.00
820;DHT22;392;48.838;2.322;2023-07-28T11:03:24;24.80;65.00
820;DHT22;392;48.838;2.322;2023-07-28T11:05:54;24.60;67.10
820;DHT22;392;48.838;2.322;2023-07-28T11:08:24;24.50;67.20
820;DHT22;392;48.838;2.322;2023-07-28T11:10:51;24.50;70.90
820;DHT22;392;48.838;2.322;2023-07-28T11:13:19;24.40;69.30
820;DHT22;392;48.838;2.322;2023-07-28T11:15:46;24.30;69.40
820;DHT22;392;48.838;2.322;2023-07-28T11:18:15;24.10;70.80
820;DHT22;392;48.838;2.322;2023-07-28T11:20:43;24.10;77.30
820;DHT22;392;48.838;2.322;2023-07-28T11:23:14;24.40;77.00
820;DHT22;392;48.838;2.322;2023-07-28T11:25:44;24.60;73.50
820;DHT22;392;48.838;2.322;2023-07-28T11:28:13;24.90;69.10
820;DHT22;392;48.838;2.322;2023-07-28T11:30:41;25.10;66.00
820;DHT22;392;48.838;2.322;2023-07-28T11:33:10;25.20;65.50
820;DHT22;392;48.838;2.322;2023-07-28T11:35:39;25.30;63.80
820;DHT22;392;48.838;2.322;2023-07-28T11:38:07;25.60;64.00
820;DHT22;392;48.838;2.322;2023-07-28T11:40:36;26.50;64.70
820;DHT22;392;48.838;2.322;2023-07-28T11:43:05;27.50;49.30
820;DHT22;392;48.838;2.322;2023-07-28T11:45:33;28.40;44.60
820;DHT22;392;48.838;2.322;2023-07-28T11:48:02;29.50;39.00
820;DHT22;392;48.838;2.322;2023-07-28T11:50:34;29.50;39.60
820;DHT22;392;48.838;2.322;2023-07-28T11:53:03;30.10;34.50
820;DHT22;392;48.838;2.322;2023-07-28T11:55:32;30.10;33.30
820;DHT22;392;48.838;2.322;2023-07-28T11:58:01;30.00;35.20
820;DHT22;392;48.838;2.322;2023-07-28T12:00:32;30.30;32.30
820;DHT22;392;48.838;2.322;2023-07-28T12:03:03;30.20;32.00
820;DHT22;392;48.838;2.322;2023-07-28T12:05:31;30.00;32.70
820;DHT22;392;48.838;2.322;2023-07-28T12:08:00;30.20;30.60
820;DHT22;392;48.838;2.322;2023-07-28T12:10:29;30.60;30.80
820;DHT22;392;48.838;2.322;2023-07-28T12:12:57;30.90;30.00
820;DHT22;392;48.838;2.322;2023-07-28T12:15:34;31.00;29.10
820;DHT22;392;48.838;2.322;2023-07-28T12:18:04;30.70;29.70
820;DHT22;392;48.838;2.322;2023-07-28T12:20:40;31.00;29.00
820;DHT22;392;48.838;2.322;2023-07-28T12:23:13;31.30;27.40
820;DHT22;392;48.838;2.322;2023-07-28T12:25:41;30.60;29.30
820;DHT22;392;48.838;2.322;2023-07-28T12:28:10;29.70;31.50
820;DHT22;392;48.838;2.322;2023-07-28T12:30:38;29.00;35.70
820;DHT22;392;48.838;2.322;2023-07-28T12:33:06;28.80;36.60
820;DHT22;392;48.838;2.322;2023-07-28T12:35:34;29.10;35.70
820;DHT22;392;48.838;2.322;2023-07-28T12:38:03;29.30;33.40
820;DHT22;392;48.838;2.322;2023-07-28T12:40:32;29.40;33.60
820;DHT22;392;48.838;2.322;2023-07-28T12:43:02;28.90;34.70
820;DHT22;392;48.838;2.322;2023-07-28T12:45:30;28.30;37.80
820;DHT22;392;48.838;2.322;2023-07-28T12:48:00;27.60;40.00
820;DHT22;392;48.838;2.322;2023-07-28T12:50:27;27.20;44.30
820;DHT22;392;48.838;2.322;2023-07-28T12:52:54;27.00;46.90
820;DHT22;392;48.838;2.322;2023-07-28T12:55:22;26.80;50.30
820;DHT22;392;48.838;2.322;2023-07-28T12:57:49;26.90;49.20
820;DHT22;392;48.838;2.322;2023-07-28T13:00:16;27.40;44.40
820;DHT22;392;48.838;2.322;2023-07-28T13:02:44;27.70;45.70
820;DHT22;392;48.838;2.322;2023-07-28T13:05:14;28.20;41.30
820;DHT22;392;48.838;2.322;2023-07-28T13:07:43;28.60;38.20
820;DHT22;392;48.838;2.322;2023-07-28T13:10:11;28.80;36.10
820;DHT22;392;48.838;2.322;2023-07-28T13:12:38;28.60;35.00
820;DHT22;392;48.838;2.322;2023-07-28T13:15:06;28.30;35.80
820;DHT22;392;48.838;2.322;2023-07-28T13:17:34;28.00;37.20
820;DHT22;392;48.838;2.322;2023-07-28T13:20:02;27.90;36.10
820;DHT22;392;48.838;2.322;2023-07-28T13:22:30;27.70;39.60
820;DHT22;392;48.838;2.322;2023-07-28T13:24:58;27.20;42.80
820;DHT22;392;48.838;2.322;2023-07-28T13:27:25;26.90;44.10
820;DHT22;392;48.838;2.322;2023-07-28T13:29:53;26.60;46.20
820;DHT22;392;48.838;2.322;2023-07-28T13:32:23;26.10;56.30
820;DHT22;392;48.838;2.322;2023-07-28T13:34:52;25.30;66.00
820;DHT22;392;48.838;2.322;2023-07-28T13:37:19;24.70;70.80
820;DHT22;392;48.838;2.322;2023-07-28T13:39:48;24.40;74.80
820;DHT22;392;48.838;2.322;2023-07-28T13:42:15;24.30;76.90
820;DHT22;392;48.838;2.322;2023-07-28T13:44:42;24.50;78.80
820;DHT22;392;48.838;2.322;2023-07-28T13:47:10;24.80;77.40
820;DHT22;392;48.838;2.322;2023-07-28T13:49:37;25.20;74.40
820;DHT22;392;48.838;2.322;2023-07-28T13:52:05;25.70;74.70
820;DHT22;392;48.838;2.322;2023-07-28T13:54:33;26.10;66.90
820;DHT22;392;48.838;2.322;2023-07-28T13:57:02;26.50;60.50
820;DHT22;392;48.838;2.322;2023-07-28T13:59:29;26.70;59.80
820;DHT22;392;48.838;2.322;2023-07-28T14:01:57;27.00;57.60
820;DHT22;392;48.838;2.322;2023-07-28T14:04:24;27.10;56.10
820;DHT22;392;48.838;2.322;2023-07-28T14:06:52;26.90;54.20
820;DHT22;392;48.838;2.322;2023-07-28T14:09:19;26.80;52.80
820;DHT22;392;48.838;2.322;2023-07-28T14:11:46;26.70;53.50
820;DHT22;392;48.838;2.322;2023-07-28T14:14:15;26.90;54.30
820;DHT22;392;48.838;2.322;2023-07-28T14:16:42;26.70;55.10
820;DHT22;392;48.838;2.322;2023-07-28T14:19:10;26.60;55.50
820;DHT22;392;48.838;2.322;2023-07-28T14:21:37;26.50;58.00
820;DHT22;392;48.838;2.322;2023-07-28T14:24:05;26.40;57.50
820;DHT22;392;48.838;2.322;2023-07-28T14:26:32;26.40;56.20
820;DHT22;392;48.838;2.322;2023-07-28T14:28:59;26.40;57.80
820;DHT22;392;48.838;2.322;2023-07-28T14:31:28;26.40;57.60
820;DHT22;392;48.838;2.322;2023-07-28T14:33:55;26.20;58.60
820;DHT22;392;48.838;2.322;2023-07-28T14:36:23;26.10;59.20
820;DHT22;392;48.838;2.322;2023-07-28T14:38:50;26.10;58.20
820;DHT22;392;48.838;2.322;2023-07-28T14:41:17;26.00;58.50
820;DHT22;392;48.838;2.322;2023-07-28T14:43:44;25.80;59.20
820;DHT22;392;48.838;2.322;2023-07-28T14:46:12;25.60;60.80
820;DHT22;392;48.838;2.322;2023-07-28T14:48:40;25.50;59.00
820;DHT22;392;48.838;2.322;2023-07-28T14:51:08;25.50;60.10
820;DHT22;392;48.838;2.322;2023-07-28T14:53:36;25.40;60.00
820;DHT22;392;48.838;2.322;2023-07-28T14:56:06;25.20;58.70
820;DHT22;392;48.838;2.322;2023-07-28T14:58:33;25.00;61.30
820;DHT22;392;48.838;2.322;2023-07-28T15:01:00;24.70;64.00
820;DHT22;392;48.838;2.322;2023-07-28T15:03:30;24.60;67.10
820;DHT22;392;48.838;2.322;2023-07-28T15:06:00;24.60;67.10
820;DHT22;392;48.838;2.322;2023-07-28T15:08:27;24.80;69.70
820;DHT22;392;48.838;2.322;2023-07-28T15:10:56;25.00;65.30
820;DHT22;392;48.838;2.322;2023-07-28T15:13:23;25.30;62.40
820;DHT22;392;48.838;2.322;2023-07-28T15:15:51;25.40;60.60
820;DHT22;392;48.838;2.322;2023-07-28T15:18:18;25.50;60.10
820;DHT22;392;48.838;2.322;2023-07-28T15:20:45;25.70;59.20
820;DHT22;392;48.838;2.322;2023-07-28T15:23:14;25.70;55.90
820;DHT22;392;48.838;2.322;2023-07-28T15:25:41;25.60;55.50
820;DHT22;392;48.838;2.322;2023-07-28T15:28:09;25.40;58.10
820;DHT22;392;48.838;2.322;2023-07-28T15:30:37;25.20;59.20
820;DHT22;392;48.838;2.322;2023-07-28T15:33:05;25.00;59.70
820;DHT22;392;48.838;2.322;2023-07-28T15:35:32;24.80;61.90
820;DHT22;392;48.838;2.322;2023-07-28T15:37:59;24.80;64.50
820;DHT22;392;48.838;2.322;2023-07-28T15:40:28;24.70;66.60
820;DHT22;392;48.838;2.322;2023-07-28T15:42:56;24.60;67.00
820;DHT22;392;48.838;2.322;2023-07-28T15:45:23;24.70;68.20
820;DHT22;392;48.838;2.322;2023-07-28T15:47:50;24.70;68.00
820;DHT22;392;48.838;2.322;2023-07-28T15:50:17;24.80;68.90
820;DHT22;392;48.838;2.322;2023-07-28T15:52:45;24.90;68.90
820;DHT22;392;48.838;2.322;2023-07-28T15:57:41;25.10;65.50
820;DHT22;392;48.838;2.322;2023-07-28T16:00:09;25.20;65.00
820;DHT22;392;48.838;2.322;2023-07-28T16:02:39;25.10;64.60
820;DHT22;392;48.838;2.322;2023-07-28T16:05:07;25.20;64.80
820;DHT22;392;48.838;2.322;2023-07-28T16:07:35;25.10;65.80
820;DHT22;392;48.838;2.322;2023-07-28T16:10:02;25.10;66.70
820;DHT22;392;48.838;2.322;2023-07-28T16:12:30;25.00;67.50
820;DHT22;392;48.838;2.322;2023-07-28T16:14:59;24.90;68.50
820;DHT22;392;48.838;2.322;2023-07-28T16:17:26;24.70;70.00
820;DHT22;392;48.838;2.322;2023-07-28T16:19:54;24.40;71.40
820;DHT22;392;48.838;2.322;2023-07-28T16:22:23;24.10;74.50
820;DHT22;392;48.838;2.322;2023-07-28T16:24:50;23.80;79.30
820;DHT22;392;48.838;2.322;2023-07-28T16:27:17;23.60;83.80
820;DHT22;392;48.838;2.322;2023-07-28T16:29:46;23.10;88.60
820;DHT22;392;48.838;2.322;2023-07-28T16:32:18;22.50;91.00
820;DHT22;392;48.838;2.322;2023-07-28T16:34:46;22.10;92.80
820;DHT22;392;48.838;2.322;2023-07-28T16:37:13;21.70;94.10
820;DHT22;392;48.838;2.322;2023-07-28T16:39:40;21.50;95.50
820;DHT22;392;48.838;2.322;2023-07-28T16:42:08;21.40;97.60
820;DHT22;392;48.838;2.322;2023-07-28T16:44:35;21.30;98.80
820;DHT22;392;48.838;2.322;2023-07-28T16:47:05;21.40;99.90
820;DHT22;392;48.838;2.322;2023-07-28T16:49:34;21.60;99.90
820;DHT22;392;48.838;2.322;2023-07-28T16:52:01;21.60;99.90
820;DHT22;392;48.838;2.322;2023-07-28T16:54:28;21.60;99.90